Time;durP1;ratioP1;P1;durP2;ratioP2;P2;SDS_P1;SDS_P2;PMS_P1;PMS_P2;Temp;Humidity;BMP_temperature;BMP_pressure;BME280_temperature;BME280_humidity;BME280_pressure;Samples;Min_cycle;Max_cycle;Signal;HPM_P1;HPM_P2
2023/12/23 00:00:41;;;;;;;933.77;863.93;;;6.80;99.90;;;;;;5035091;28;20541;-85
2023/12/23 00:03:08;;;;;;;938.07;867.43;;;6.80;99.90;;;;;;5034959;28;20493;-83
2023/12/23 00:05:35;;;;;;;940.93;869.43;;;6.90;99.90;;;;;;5034671;28;20470;-83
2023/12/23 00:08:02;;;;;;;934.90;864.93;;;6.90;99.90;;;;;;5034916;28;20464;-83
2023/12/23 00:10:29;;;;;;;941.07;869.67;;;6.90;99.90;;;;;;5035108;28;20868;-83
2023/12/23 00:12:56;;;;;;;945.70;873.67;;;6.80;99.90;;;;;;5034824;28;20961;-83
2023/12/23 00:15:24;;;;;;;943.70;871.50;;;6.80;99.90;;;;;;5034946;28;20473;-83
2023/12/23 00:17:51;;;;;;;944.90;873.60;;;6.80;99.90;;;;;;5034458;28;20449;-84
2023/12/23 00:20:18;;;;;;;948.23;875.60;;;6.80;99.90;;;;;;5034599;28;20625;-83
2023/12/23 00:22:45;;;;;;;941.93;868.77;;;6.80;99.90;;;;;;5034636;28;20475;-82
2023/12/23 00:25:14;;;;;;;941.40;868.40;;;6.80;99.90;;;;;;5034497;28;20969;-83
2023/12/23 00:27:41;;;;;;;945.77;870.30;;;6.80;99.90;;;;;;5034427;28;20458;-83
2023/12/23 00:30:09;;;;;;;941.87;867.17;;;6.80;99.90;;;;;;5034686;28;20455;-83
2023/12/23 00:32:37;;;;;;;941.03;866.93;;;6.80;99.90;;;;;;5034424;28;20447;-83
2023/12/23 00:35:05;;;;;;;940.20;865.20;;;6.80;99.90;;;;;;5034352;28;20491;-83
2023/12/23 00:37:31;;;;;;;942.10;866.53;;;6.80;99.90;;;;;;5034429;28;20455;-83
2023/12/23 00:39:58;;;;;;;942.77;866.83;;;6.80;99.90;;;;;;5034341;28;20463;-84
2023/12/23 00:42:25;;;;;;;943.97;867.00;;;6.80;99.90;;;;;;5034626;28;20557;-83
2023/12/23 00:44:52;;;;;;;945.50;868.60;;;6.80;99.90;;;;;;5033877;28;20456;-83
2023/12/23 00:47:21;;;;;;;949.67;872.13;;;6.80;99.90;;;;;;5034323;28;20567;-83
2023/12/23 00:49:49;;;;;;;946.33;868.03;;;6.80;99.90;;;;;;5034357;28;20454;-82
2023/12/23 00:52:16;;;;;;;947.53;869.60;;;6.80;99.90;;;;;;5034063;28;20456;-83
2023/12/23 00:54:43;;;;;;;949.53;870.73;;;6.80;99.90;;;;;;5033739;28;20551;-82
2023/12/23 00:57:10;;;;;;;954.37;875.80;;;6.70;99.90;;;;;;5033805;28;20449;-83
2023/12/23 00:59:37;;;;;;;957.70;879.33;;;6.80;99.90;;;;;;5034077;28;20455;-82
2023/12/23 01:02:05;;;;;;;964.03;885.00;;;6.80;99.90;;;;;;5032918;28;20475;-83
2023/12/23 01:04:31;;;;;;;967.30;886.90;;;6.80;99.90;;;;;;5033671;28;20448;-83
2023/12/23 01:07:00;;;;;;;964.47;885.07;;;6.80;99.90;;;;;;5033829;28;20456;-82
2023/12/23 01:09:27;;;;;;;976.67;895.37;;;6.80;99.90;;;;;;5034127;28;20457;-82
2023/12/23 01:11:53;;;;;;;954.53;872.90;;;6.80;99.90;;;;;;5033944;28;20509;-83
2023/12/23 01:14:20;;;;;;;952.90;870.90;;;6.80;99.90;;;;;;5033265;28;20456;-82
2023/12/23 01:16:47;;;;;;;954.03;871.27;;;6.90;99.90;;;;;;5034170;28;20462;-83
2023/12/23 01:19:14;;;;;;;955.47;872.17;;;6.80;99.90;;;;;;5033433;28;20448;-82
2023/12/23 01:21:41;;;;;;;959.00;874.93;;;6.90;99.90;;;;;;5033530;28;20853;-83
2023/12/23 01:24:09;;;;;;;957.27;873.47;;;6.90;99.90;;;;;;5033100;28;20483;-83
2023/12/23 01:26:36;;;;;;;956.80;872.60;;;6.90;99.90;;;;;;5033457;28;20460;-83
2023/12/23 01:29:03;;;;;;;956.47;871.70;;;6.90;99.90;;;;;;5033139;28;20463;-82
2023/12/23 01:31:30;;;;;;;960.73;875.77;;;7.00;99.90;;;;;;5033697;28;20451;-82
2023/12/23 01:33:56;;;;;;;959.67;874.63;;;6.90;99.90;;;;;;5032949;28;20485;-82
2023/12/23 01:36:23;;;;;;;958.93;873.53;;;7.00;99.90;;;;;;5033521;28;20851;-83
2023/12/23 01:38:50;;;;;;;959.33;873.73;;;7.00;99.90;;;;;;5033151;28;20501;-83
2023/12/23 01:41:19;;;;;;;961.43;875.33;;;7.00;99.90;;;;;;5033569;28;20885;-83
2023/12/23 01:43:45;;;;;;;960.87;874.30;;;7.00;99.90;;;;;;5032853;28;20764;-83
2023/12/23 01:46:13;;;;;;;960.63;873.77;;;6.90;99.90;;;;;;5033080;28;20458;-83
2023/12/23 01:48:42;;;;;;;956.47;870.47;;;7.00;99.90;;;;;;5032853;28;20448;-83
2023/12/23 01:51:10;;;;;;;958.73;872.47;;;7.00;99.90;;;;;;5033071;28;20448;-83
2023/12/23 01:53:38;;;;;;;957.90;871.67;;;7.00;99.90;;;;;;5032618;28;20444;-83
2023/12/23 01:56:05;;;;;;;952.70;865.87;;;7.00;99.90;;;;;;5033203;28;20452;-83
2023/12/23 01:58:34;;;;;;;955.90;869.13;;;7.00;99.90;;;;;;5032865;28;20452;-83
2023/12/23 02:01:02;;;;;;;954.63;867.93;;;7.10;99.90;;;;;;5033045;28;20544;-82
2023/12/23 02:03:31;;;;;;;949.83;862.73;;;7.00;99.90;;;;;;5032592;28;20996;-82
2023/12/23 02:05:58;;;;;;;951.50;864.73;;;7.00;99.90;;;;;;5032856;28;20451;-82
2023/12/23 02:08:25;;;;;;;956.27;869.30;;;7.00;99.90;;;;;;5032313;28;20479;-82
2023/12/23 02:11:02;;;;;;;957.87;870.33;;;7.00;99.90;;;;;;5032771;28;20791;-82
2023/12/23 02:13:31;;;;;;;952.90;865.60;;;7.00;99.90;;;;;;5032325;28;20443;-82
2023/12/23 02:16:00;;;;;;;953.13;866.33;;;7.00;99.90;;;;;;5032727;28;20451;-82
2023/12/23 02:18:27;;;;;;;957.70;871.07;;;7.10;99.90;;;;;;5032321;28;20451;-83
2023/12/23 02:20:55;;;;;;;958.10;871.23;;;7.10;99.90;;;;;;5032407;28;20491;-82
2023/12/23 02:23:22;;;;;;;952.47;865.50;;;7.20;99.90;;;;;;5032190;28;20831;-83
2023/12/23 02:25:55;;;;;;;951.17;864.77;;;7.30;99.90;;;;;;5032653;28;20502;-82
2023/12/23 02:28:23;;;;;;;949.50;862.70;;;7.30;99.90;;;;;;5032428;28;20455;-83
2023/12/23 02:30:51;;;;;;;948.43;861.37;;;7.50;99.90;;;;;;5032499;28;20543;-85
2023/12/23 02:33:18;;;;;;;953.70;865.83;;;7.60;99.90;;;;;;5031804;28;20452;-83
2023/12/23 02:35:45;;;;;;;954.03;865.67;;;7.70;99.90;;;;;;5032469;28;20453;-83
2023/12/23 02:38:14;;;;;;;950.00;862.20;;;7.70;99.90;;;;;;5032368;28;20458;-84
2023/12/23 02:40:40;;;;;;;948.53;860.37;;;7.90;99.90;;;;;;5032469;28;20462;-82
2023/12/23 02:43:07;;;;;;;987.90;898.40;;;8.00;99.90;;;;;;5032372;28;20480;-83
2023/12/23 02:45:34;;;;;;;989.97;899.57;;;8.00;99.90;;;;;;5032045;28;20452;-83
2023/12/23 02:48:02;;;;;;;993.17;902.43;;;8.10;99.90;;;;;;5032219;28;20452;-83
2023/12/23 02:50:28;;;;;;;999.17;907.80;;;8.20;99.90;;;;;;5032175;28;20463;-82
2023/12/23 02:52:55;;;;;;;989.93;898.50;;;8.20;99.90;;;;;;5032514;28;20502;-84
2023/12/23 02:55:24;;;;;;;953.70;863.23;;;8.30;99.90;;;;;;5032283;28;20459;-82
2023/12/23 02:57:50;;;;;;;973.47;884.00;;;8.40;99.90;;;;;;5032051;28;20952;-85
2023/12/23 03:00:18;;;;;;;980.10;893.47;;;8.50;99.90;;;;;;5032116;28;20456;-81
2023/12/23 03:02:45;;;;;;;982.17;895.53;;;8.30;99.90;;;;;;5031808;28;20486;-82
2023/12/23 03:05:11;;;;;;;976.20;886.93;;;8.40;99.90;;;;;;5031925;28;20452;-82
2023/12/23 03:07:38;;;;;;;965.17;874.50;;;8.30;99.90;;;;;;5031931;28;20459;-82
2023/12/23 03:10:06;;;;;;;1036.53;953.27;;;8.30;99.90;;;;;;5032095;28;20481;-81
2023/12/23 03:12:34;;;;;;;1043.60;955.30;;;8.30;99.90;;;;;;5032039;28;20456;-81
2023/12/23 03:15:02;;;;;;;1039.90;950.20;;;8.30;99.90;;;;;;5031476;28;20479;-85
2023/12/23 03:17:29;;;;;;;999.03;907.40;;;8.30;99.90;;;;;;5031821;28;20456;-84
2023/12/23 03:19:56;;;;;;;999.73;908.00;;;8.30;99.90;;;;;;5032053;28;20456;-82
2023/12/23 03:22:23;;;;;;;1002.10;910.00;;;8.20;99.90;;;;;;5031873;28;20515;-83
2023/12/23 03:24:50;;;;;;;982.57;890.93;;;8.20;99.90;;;;;;5032960;28;20458;-83
2023/12/23 03:27:18;;;;;;;1000.17;908.00;;;8.20;99.90;;;;;;5035589;28;20527;-81
2023/12/23 03:29:46;;;;;;;997.40;905.37;;;8.30;99.90;;;;;;5035610;28;20455;-84
2023/12/23 03:32:13;;;;;;;1002.47;910.27;;;8.20;99.90;;;;;;5034705;28;20487;-84
2023/12/23 03:34:41;;;;;;;995.53;903.43;;;8.20;99.90;;;;;;5035373;28;20455;-84
2023/12/23 03:37:08;;;;;;;999.17;906.37;;;8.20;99.90;;;;;;5035554;28;20822;-83
2023/12/23 03:39:35;;;;;;;961.47;869.37;;;8.20;99.90;;;;;;5035531;28;20458;-84
2023/12/23 03:42:02;;;;;;;959.90;869.00;;;8.20;99.90;;;;;;5035436;28;20455;-82
2023/12/23 03:44:29;;;;;;;956.07;865.00;;;8.20;99.90;;;;;;5035010;28;20452;-82
2023/12/23 03:46:57;;;;;;;955.40;863.40;;;8.20;99.90;;;;;;5035268;28;20451;-84
2023/12/23 03:49:24;;;;;;;965.80;874.60;;;8.20;99.90;;;;;;5035208;28;20463;-81
2023/12/23 03:51:50;;;;;;;960.50;869.30;;;8.20;99.90;;;;;;5035354;28;20448;-84
2023/12/23 03:54:17;;;;;;;961.47;871.57;;;8.20;99.90;;;;;;5035122;28;20458;-83
2023/12/23 03:56:44;;;;;;;960.67;870.93;;;8.20;99.90;;;;;;5035379;28;20542;-84
2023/12/23 03:59:11;;;;;;;960.20;872.43;;;8.20;99.90;;;;;;5034820;28;20970;-85
2023/12/23 04:01:38;;;;;;;960.27;870.57;;;8.20;99.90;;;;;;5035303;28;20458;-86
2023/12/23 04:04:06;;;;;;;993.57;902.83;;;8.20;99.90;;;;;;5034869;28;20485;-83
2023/12/23 04:06:33;;;;;;;994.17;902.10;;;8.20;99.90;;;;;;5035062;28;20459;-83
2023/12/23 04:09:00;;;;;;;989.70;897.73;;;8.20;99.90;;;;;;5035024;28;20456;-86
2023/12/23 04:11:26;;;;;;;983.70;892.00;;;8.20;99.90;;;;;;5035047;28;20889;-84
2023/12/23 04:13:53;;;;;;;995.37;902.43;;;8.20;99.90;;;;;;5035266;28;20444;-86
2023/12/23 04:16:20;;;;;;;973.43;882.53;;;8.20;99.90;;;;;;5035185;28;20551;-86
2023/12/23 04:18:47;;;;;;;971.10;882.40;;;8.30;99.90;;;;;;5034881;28;20451;-87
2023/12/23 04:21:15;;;;;;;974.37;884.77;;;8.30;99.90;;;;;;5034858;28;20463;-86
2023/12/23 04:23:42;;;;;;;1010.07;918.23;;;8.20;99.90;;;;;;5034316;28;20480;-83
2023/12/23 04:26:10;;;;;;;1015.23;923.03;;;8.20;99.90;;;;;;5034620;28;20979;-83
2023/12/23 04:28:37;;;;;;;1019.63;927.93;;;8.20;99.90;;;;;;5034577;28;20456;-82
2023/12/23 04:31:04;;;;;;;1024.07;931.57;;;8.20;99.90;;;;;;5034537;28;20486;-83
2023/12/23 04:33:31;;;;;;;1017.50;925.07;;;8.20;99.90;;;;;;5034053;28;20983;-83
2023/12/23 04:35:59;;;;;;;1000.50;907.50;;;8.20;99.90;;;;;;5034524;28;20451;-84
2023/12/23 04:38:27;;;;;;;989.50;897.80;;;8.20;99.90;;;;;;5034434;28;20452;-85
2023/12/23 04:40:54;;;;;;;988.80;897.10;;;8.20;99.90;;;;;;5034443;28;20452;-82
2023/12/23 04:43:20;;;;;;;996.77;904.20;;;8.20;99.90;;;;;;5034191;28;20871;-85
2023/12/23 04:45:47;;;;;;;992.87;899.50;;;8.20;99.90;;;;;;5034470;28;20482;-83
2023/12/23 04:48:14;;;;;;;991.10;898.47;;;8.20;99.90;;;;;;5034440;28;20452;-83
2023/12/23 04:50:41;;;;;;;985.57;892.03;;;8.20;99.90;;;;;;5034403;28;20537;-83
2023/12/23 04:53:08;;;;;;;997.43;903.17;;;8.20;99.90;;;;;;5034097;28;20458;-83
2023/12/23 04:55:36;;;;;;;996.73;903.20;;;8.10;99.90;;;;;;5033727;28;20455;-83
2023/12/23 04:58:03;;;;;;;998.60;906.60;;;8.20;99.90;;;;;;5034296;28;20456;-82
2023/12/23 05:00:30;;;;;;;995.70;904.10;;;8.20;99.90;;;;;;5034280;28;20459;-84
2023/12/23 05:02:57;;;;;;;971.13;882.07;;;8.20;99.90;;;;;;5034182;28;20826;-82
2023/12/23 05:05:24;;;;;;;990.40;898.23;;;8.30;99.90;;;;;;5033859;28;20567;-84
2023/12/23 05:07:51;;;;;;;994.63;903.60;;;8.30;99.90;;;;;;5033659;28;20452;-84
2023/12/23 05:10:18;;;;;;;994.37;902.27;;;8.40;99.90;;;;;;5034192;28;20948;-85
2023/12/23 05:12:46;;;;;;;988.23;896.70;;;8.30;99.90;;;;;;5034094;28;20819;-84
2023/12/23 05:15:13;;;;;;;986.47;895.33;;;8.20;99.90;;;;;;5033426;28;20456;-84
2023/12/23 05:17:40;;;;;;;989.97;897.93;;;8.20;99.90;;;;;;5033707;28;20491;-85
2023/12/23 05:20:09;;;;;;;987.93;896.50;;;8.20;99.90;;;;;;5034056;28;20873;-82
2023/12/23 05:22:36;;;;;;;976.43;885.40;;;8.30;99.90;;;;;;5033536;28;20452;-85
2023/12/23 05:25:04;;;;;;;971.10;880.20;;;8.30;99.90;;;;;;5033576;28;20456;-83
2023/12/23 05:27:31;;;;;;;963.90;876.63;;;8.20;99.90;;;;;;5033619;28;20452;-83
2023/12/23 05:29:59;;;;;;;984.77;892.37;;;8.30;99.90;;;;;;5033465;28;20452;-85
2023/12/23 05:32:26;;;;;;;983.37;892.27;;;8.30;99.90;;;;;;5033679;28;20812;-83
2023/12/23 05:34:53;;;;;;;980.53;889.50;;;8.30;99.90;;;;;;5033354;28;20452;-82
2023/12/23 05:37:19;;;;;;;994.60;904.23;;;8.30;99.90;;;;;;5033058;28;20547;-82
2023/12/23 05:39:48;;;;;;;983.70;894.07;;;8.30;99.90;;;;;;5033551;28;20552;-83
2023/12/23 05:42:15;;;;;;;994.83;905.90;;;8.40;99.90;;;;;;5033398;28;20463;-84
2023/12/23 05:44:42;;;;;;;976.97;891.13;;;8.40;99.90;;;;;;5033241;28;20475;-85
2023/12/23 05:47:10;;;;;;;988.53;903.80;;;8.40;99.90;;;;;;5032628;28;20543;-84
2023/12/23 05:49:37;;;;;;;979.53;891.57;;;8.50;99.90;;;;;;5032985;28;20455;-84
2023/12/23 05:52:04;;;;;;;998.60;909.40;;;8.40;99.90;;;;;;5033244;28;20462;-83
2023/12/23 05:54:31;;;;;;;969.10;881.10;;;8.40;99.90;;;;;;5033002;28;20448;-84
2023/12/23 05:56:57;;;;;;;966.43;878.83;;;8.40;99.90;;;;;;5033352;28;20447;-84
2023/12/23 05:59:25;;;;;;;982.93;895.23;;;8.40;99.90;;;;;;5032730;28;20456;-84
2023/12/23 06:01:52;;;;;;;972.23;885.77;;;8.40;99.90;;;;;;5032893;28;20498;-79
2023/12/23 06:04:21;;;;;;;977.90;891.40;;;8.40;99.90;;;;;;5032494;28;20479;-79
2023/12/23 06:06:47;;;;;;;973.70;887.77;;;8.50;99.90;;;;;;5032816;28;20453;-79
2023/12/23 06:09:14;;;;;;;988.40;901.30;;;8.40;99.90;;;;;;5032666;28;20452;-79
2023/12/23 06:11:41;;;;;;;986.73;901.90;;;8.40;99.90;;;;;;5032705;28;20452;-79
2023/12/23 06:14:08;;;;;;;1002.13;914.77;;;8.40;99.90;;;;;;5032502;28;20451;-79
2023/12/23 06:16:39;;;;;;;991.30;905.60;;;8.50;99.90;;;;;;5032622;28;20833;-80
2023/12/23 06:19:06;;;;;;;991.93;904.53;;;8.40;99.90;;;;;;5032488;28;20459;-79
2023/12/23 06:21:35;;;;;;;986.97;899.17;;;8.40;99.90;;;;;;5032655;28;20517;-79
2023/12/23 06:24:02;;;;;;;983.57;896.00;;;8.50;99.90;;;;;;5032372;28;20488;-78
2023/12/23 06:26:29;;;;;;;965.87;878.27;;;8.50;99.90;;;;;;5032491;28;20494;-79
2023/12/23 06:28:56;;;;;;;980.70;892.40;;;8.40;99.90;;;;;;5032161;28;20514;-78
2023/12/23 06:31:22;;;;;;;968.50;881.70;;;8.60;99.90;;;;;;5032192;28;20454;-79
2023/12/23 06:33:49;;;;;;;979.67;891.67;;;8.50;99.90;;;;;;5032192;28;20454;-78
2023/12/23 06:36:16;;;;;;;990.27;902.23;;;8.50;99.90;;;;;;5032463;28;20960;-79
2023/12/23 06:38:45;;;;;;;982.90;895.27;;;8.50;99.90;;;;;;5032493;28;21153;-78
2023/12/23 06:41:12;;;;;;;984.30;898.40;;;8.50;99.90;;;;;;5032272;28;20452;-80
2023/12/23 06:43:40;;;;;;;983.17;896.33;;;8.60;99.90;;;;;;5031649;28;20995;-78
2023/12/23 06:46:10;;;;;;;973.27;886.03;;;8.50;99.90;;;;;;5032670;28;20451;-79
2023/12/23 06:48:36;;;;;;;985.50;897.60;;;8.60;99.90;;;;;;5031969;28;20539;-79
2023/12/23 06:51:03;;;;;;;983.80;897.10;;;8.50;99.90;;;;;;5032350;28;20454;-78
2023/12/23 06:53:30;;;;;;;978.93;891.67;;;8.60;99.90;;;;;;5031715;28;20444;-79
2023/12/23 06:55:59;;;;;;;992.47;905.27;;;8.50;99.90;;;;;;5032136;28;20456;-77
2023/12/23 06:58:28;;;;;;;991.60;904.37;;;8.60;99.90;;;;;;5031779;28;20448;-79
2023/12/23 07:00:55;;;;;;;1006.50;918.60;;;8.60;99.90;;;;;;5035941;28;20499;-78
2023/12/23 07:03:22;;;;;;;1025.43;937.43;;;8.50;99.90;;;;;;5035584;28;20995;-79
2023/12/23 07:05:48;;;;;;;1016.97;928.73;;;8.40;99.90;;;;;;5036287;28;20548;-80
2023/12/23 07:08:16;;;;;;;1022.17;938.47;;;8.50;99.90;;;;;;5035792;28;20478;-78
2023/12/23 07:10:43;;;;;;;1028.67;940.97;;;8.50;99.90;;;;;;5035619;28;20452;-79
2023/12/23 07:13:11;;;;;;;1025.13;938.70;;;8.40;99.90;;;;;;5033245;28;20451;-83
2023/12/23 07:15:38;;;;;;;1024.37;938.00;;;8.40;99.90;;;;;;5035740;28;20464;-81
2023/12/23 07:18:06;;;;;;;1020.90;932.40;;;8.30;99.90;;;;;;5034540;28;20539;-80
2023/12/23 07:20:33;;;;;;;1038.53;949.23;;;8.30;99.90;;;;;;5035742;28;20459;-83
2023/12/23 07:23:00;;;;;;;986.30;897.77;;;8.30;99.90;;;;;;5035933;28;20539;-84
2023/12/23 07:25:27;;;;;;;1011.50;921.10;;;8.30;99.90;;;;;;5034706;28;20490;-83
2023/12/23 07:27:54;;;;;;;999.67;909.07;;;8.30;99.90;;;;;;5035402;28;20464;-82
2023/12/23 07:30:22;;;;;;;1020.53;932.33;;;8.20;99.90;;;;;;5035689;28;20448;-83
2023/12/23 07:32:49;;;;;;;1006.07;916.93;;;8.30;99.90;;;;;;5035372;28;20474;-84
2023/12/23 07:35:16;;;;;;;1007.83;918.03;;;8.30;99.90;;;;;;5035223;28;20459;-79
2023/12/23 07:37:43;;;;;;;1019.67;931.70;;;8.30;99.90;;;;;;5035490;28;20955;-80
2023/12/23 07:40:11;;;;;;;1002.85;911.55;;;8.30;99.90;;;;;;5034196;28;20455;-80
2023/12/23 07:42:38;;;;;;;990.60;901.30;;;8.30;99.90;;;;;;5035659;28;20198;-80
2023/12/23 07:45:05;;;;;;;1009.43;918.53;;;8.30;99.90;;;;;;5035063;28;20494;-79
2023/12/23 07:47:34;;;;;;;1026.47;935.27;;;8.30;99.90;;;;;;5034138;28;20498;-79
2023/12/23 07:50:00;;;;;;;1030.80;940.10;;;8.30;99.90;;;;;;5035270;28;20534;-80
2023/12/23 07:52:27;;;;;;;1034.50;945.10;;;8.30;99.90;;;;;;5035280;28;20533;-79
2023/12/23 07:54:56;;;;;;;1025.47;936.60;;;8.30;99.90;;;;;;5035098;28;20509;-80
2023/12/23 07:57:23;;;;;;;1019.73;932.00;;;8.30;99.90;;;;;;5035400;28;20448;-79
2023/12/23 07:59:49;;;;;;;1012.13;925.13;;;8.30;99.90;;;;;;5035337;28;20509;-80
2023/12/23 08:02:16;;;;;;;993.43;906.03;;;8.40;99.90;;;;;;5035172;28;20479;-80
2023/12/23 08:04:45;;;;;;;999.60;912.70;;;8.40;99.90;;;;;;5034254;28;20995;-80
2023/12/23 08:07:11;;;;;;;997.07;911.53;;;8.40;99.90;;;;;;5034917;28;20455;-79
2023/12/23 08:09:38;;;;;;;1001.10;916.73;;;8.40;99.90;;;;;;5035078;28;20550;-80
2023/12/23 08:12:06;;;;;;;1026.33;940.53;;;8.40;99.90;;;;;;5034882;28;20491;-80
2023/12/23 08:14:33;;;;;;;1021.70;937.60;;;8.40;99.90;;;;;;5034617;28;20483;-80
2023/12/23 08:17:00;;;;;;;1010.90;925.10;;;8.40;99.90;;;;;;5035126;28;20456;-79
2023/12/23 08:19:27;;;;;;;1024.23;938.37;;;8.50;99.90;;;;;;5034402;28;20456;-80
2023/12/23 08:21:55;;;;;;;1010.80;925.40;;;8.40;99.90;;;;;;5034730;28;20527;-83
2023/12/23 08:24:22;;;;;;;1025.68;937.83;;;8.50;99.90;;;;;;5033924;28;20462;-79
2023/12/23 08:26:49;;;;;;;1001.40;916.30;;;8.50;99.90;;;;;;5034889;28;20194;-81
2023/12/23 08:29:16;;;;;;;1002.87;915.67;;;8.50;99.90;;;;;;5034440;28;20460;-80
2023/12/23 08:31:44;;;;;;;1002.60;913.90;;;8.50;99.90;;;;;;5034871;28;20539;-81
2023/12/23 08:34:11;;;;;;;1006.63;915.77;;;8.50;99.90;;;;;;5034002;28;20958;-80
2023/12/23 08:36:37;;;;;;;992.43;901.77;;;8.60;99.90;;;;;;5034607;28;20555;-80
2023/12/23 08:39:06;;;;;;;997.23;906.30;;;8.60;99.90;;;;;;5034528;28;20458;-79
2023/12/23 08:41:35;;;;;;;1006.03;913.90;;;8.60;99.90;;;;;;5031831;28;20448;-79
2023/12/23 08:44:02;;;;;;;976.07;886.53;;;8.60;99.90;;;;;;5032766;28;20480;-79
2023/12/23 08:46:29;;;;;;;964.27;874.17;;;8.80;99.90;;;;;;5033176;28;20960;-79
2023/12/23 08:48:55;;;;;;;975.03;882.57;;;8.80;99.90;;;;;;5032865;28;20448;-79
2023/12/23 08:51:22;;;;;;;977.13;883.50;;;8.80;99.90;;;;;;5033192;28;20463;-79
2023/12/23 08:53:49;;;;;;;969.17;876.70;;;8.80;99.90;;;;;;5032850;28;20830;-78
2023/12/23 08:56:17;;;;;;;969.53;876.63;;;8.90;99.90;;;;;;5033088;28;20475;-79
2023/12/23 08:58:44;;;;;;;991.90;894.83;;;8.90;99.90;;;;;;5032755;28;20452;-79
2023/12/23 09:01:12;;;;;;;982.93;885.90;;;8.90;99.90;;;;;;5032306;28;20551;-79
2023/12/23 09:03:38;;;;;;;990.67;892.67;;;8.90;99.90;;;;;;5032500;28;20460;-78
2023/12/23 09:06:06;;;;;;;1005.43;906.00;;;9.00;99.90;;;;;;5031779;28;20455;-78
2023/12/23 09:08:34;;;;;;;1020.17;918.63;;;9.00;99.90;;;;;;5031394;28;20777;-77
2023/12/23 09:11:03;;;;;;;1038.18;934.63;;;9.10;99.90;;;;;;5025022;28;20455;-78
2023/12/23 09:13:32;;;;;;;1065.20;967.80;;;9.10;99.90;;;;;;5041384;28;20197;-78
2023/12/23 09:16:04;;;;;;;1091.33;990.10;;;9.20;99.90;;;;;;5028251;28;20445;-77
2023/12/23 09:18:31;;;;;;;1107.70;999.90;;;9.20;99.90;;;;;;5032583;28;20456;-77
2023/12/23 09:20:58;;;;;;;1121.10;999.90;;;9.30;99.90;;;;;;5033376;28;20467;-77
2023/12/23 09:23:25;;;;;;;1119.97;999.90;;;9.30;99.90;;;;;;5032150;28;20453;-77
2023/12/23 09:25:52;;;;;;;1129.57;999.90;;;9.30;99.90;;;;;;5033465;28;20480;-77
2023/12/23 09:28:19;;;;;;;1141.33;999.90;;;9.30;99.90;;;;;;5033174;28;20463;-77
2023/12/23 09:30:47;;;;;;;1146.03;999.90;;;9.40;99.90;;;;;;5033447;28;20470;-77
2023/12/23 09:33:16;;;;;;;1166.53;999.90;;;9.50;99.90;;;;;;5032966;28;20448;-77
2023/12/23 09:35:43;;;;;;;1169.07;999.90;;;9.50;99.90;;;;;;5033535;28;20449;-77
2023/12/23 09:38:10;;;;;;;1165.40;999.90;;;9.50;99.90;;;;;;5032651;28;20451;-77
2023/12/23 09:40:37;;;;;;;1161.87;999.90;;;9.60;99.90;;;;;;5032895;28;20451;-76
2023/12/23 09:43:05;;;;;;;1154.83;999.90;;;9.70;99.90;;;;;;5032810;28;20948;-77
2023/12/23 09:45:34;;;;;;;1159.93;999.90;;;9.70;99.90;;;;;;5033860;28;20483;-77
2023/12/23 09:48:02;;;;;;;1162.43;999.90;;;9.80;99.90;;;;;;5024012;28;20449;-77
2023/12/23 09:50:29;;;;;;;1159.93;999.90;;;9.80;99.90;;;;;;5031881;28;20448;-77
2023/12/23 09:52:59;;;;;;;1142.10;999.90;;;9.80;99.90;;;;;;5031865;28;20459;-77
2023/12/23 09:55:27;;;;;;;1156.00;999.90;;;9.90;99.90;;;;;;5028299;28;20803;-77
2023/12/23 09:57:54;;;;;;;1167.97;999.90;;;9.90;99.90;;;;;;5026724;28;20448;-77
2023/12/23 10:00:21;;;;;;;1157.27;999.90;;;9.90;99.90;;;;;;5031617;28;21016;-77
2023/12/23 10:02:48;;;;;;;1164.07;999.90;;;9.90;99.90;;;;;;5022563;28;20448;-78
2023/12/23 10:05:16;;;;;;;1157.90;999.90;;;10.00;99.90;;;;;;5031030;28;20488;-77
2023/12/23 10:07:43;;;;;;;1154.93;999.90;;;10.00;99.90;;;;;;5025189;28;20928;-78
2023/12/23 10:10:12;;;;;;;1157.40;999.90;;;9.90;99.90;;;;;;5033761;28;20459;-77
2023/12/23 10:12:39;;;;;;;1163.00;999.90;;;9.60;99.90;;;;;;5044108;28;20491;-78
2023/12/23 10:15:06;;;;;;;1148.20;999.90;;;9.60;99.90;;;;;;5033075;28;20442;-77
2023/12/23 10:17:33;;;;;;;1137.93;999.90;;;9.40;99.90;;;;;;5031705;28;20929;-77
2023/12/23 10:20:01;;;;;;;1128.60;999.90;;;9.30;99.90;;;;;;5032028;28;20459;-77
2023/12/23 10:22:30;;;;;;;1122.53;999.90;;;9.20;99.90;;;;;;5030111;28;20452;-77
2023/12/23 10:25:00;;;;;;;1108.07;999.90;;;9.20;99.90;;;;;;5030277;28;21091;-77
2023/12/23 10:27:27;;;;;;;1069.23;981.53;;;9.00;99.90;;;;;;5025995;28;20506;-77
2023/12/23 10:29:57;;;;;;;1025.90;940.70;;;9.10;99.90;;;;;;5030808;28;20448;-77
2023/12/23 10:32:25;;;;;;;967.70;887.60;;;9.10;99.90;;;;;;5027159;28;20447;-77
2023/12/23 10:34:57;;;;;;;956.40;877.90;;;8.80;99.90;;;;;;5050696;28;20450;-78
2023/12/23 10:37:25;;;;;;;961.90;880.40;;;8.90;99.90;;;;;;5050750;28;20451;-78
2023/12/23 10:40:06;;;;;;;947.20;867.93;;;8.90;99.90;;;;;;5030848;28;20506;-78
2023/12/23 10:42:35;;;;;;;942.07;865.60;;;8.80;99.90;;;;;;5023838;28;20483;-78
2023/12/23 10:45:07;;;;;;;926.13;850.23;;;8.70;99.90;;;;;;5029300;28;20480;-78
2023/12/23 10:47:35;;;;;;;935.17;857.87;;;8.80;99.90;;;;;;5030842;28;20490;-78
2023/12/23 10:50:02;;;;;;;939.60;860.83;;;8.80;99.90;;;;;;5025214;28;20445;-77
2023/12/23 10:52:30;;;;;;;963.63;884.27;;;8.70;99.90;;;;;;5030597;28;20825;-77
2023/12/23 10:54:58;;;;;;;959.17;881.40;;;8.80;99.90;;;;;;5030513;28;20452;-79
2023/12/23 10:57:26;;;;;;;936.93;859.13;;;8.80;99.90;;;;;;5031254;28;20464;-78
2023/12/23 10:59:53;;;;;;;950.47;870.20;;;8.80;99.90;;;;;;5027614;28;20797;-78
2023/12/23 11:02:24;;;;;;;941.80;861.40;;;8.80;99.90;;;;;;5019607;28;20453;-77
2023/12/23 11:04:53;;;;;;;942.03;861.53;;;8.90;99.90;;;;;;5027939;28;20477;-78
2023/12/23 11:07:26;;;;;;;949.73;870.00;;;8.90;99.90;;;;;;5031504;28;20550;-77
2023/12/23 11:09:55;;;;;;;964.27;883.63;;;8.90;99.90;;;;;;5031842;28;20456;-77
2023/12/23 11:12:23;;;;;;;946.00;867.03;;;9.00;99.90;;;;;;5028651;28;20814;-78
2023/12/23 11:14:50;;;;;;;944.20;863.97;;;9.10;99.90;;;;;;5042861;28;20439;-78
2023/12/23 11:17:24;;;;;;;944.13;862.90;;;9.10;99.90;;;;;;5011589;28;20459;-78
2023/12/23 11:19:51;;;;;;;953.53;868.90;;;9.20;99.90;;;;;;5012021;28;20456;-78
2023/12/23 11:22:23;;;;;;;952.37;866.97;;;9.20;99.90;;;;;;5015925;28;20444;-79
2023/12/23 11:24:51;;;;;;;974.15;886.80;;;9.20;99.90;;;;;;5043568;28;20459;-78
2023/12/23 11:27:33;;;;;;;971.20;884.00;;;9.30;99.90;;;;;;5051053;28;20207;-78
2023/12/23 11:30:01;;;;;;;965.87;877.13;;;9.30;99.90;;;;;;5051566;28;20953;-78
2023/12/23 11:32:35;;;;;;;977.77;886.27;;;9.50;99.90;;;;;;5045720;28;20551;-78
2023/12/23 11:35:03;;;;;;;983.80;891.97;;;9.50;99.90;;;;;;5028872;28;20448;-78
2023/12/23 11:37:53;;;;;;;994.50;904.00;;;9.60;99.90;;;;;;5030153;28;20456;-78
2023/12/23 11:40:21;;;;;;;1024.03;933.63;;;9.60;99.90;;;;;;5030574;28;20464;-78
2023/12/23 11:42:51;;;;;;;1039.10;951.17;;;9.70;99.90;;;;;;5027867;28;20452;-78
2023/12/23 11:45:18;;;;;;;1078.07;989.50;;;9.80;99.90;;;;;;5032966;28;20474;-79
2023/12/23 11:47:45;;;;;;;1097.30;999.90;;;9.80;99.90;;;;;;5033970;28;20459;-78
2023/12/23 11:50:16;;;;;;;1112.70;999.90;;;9.90;99.90;;;;;;5034393;28;20456;-78
2023/12/23 11:52:45;;;;;;;1131.37;999.90;;;10.00;99.90;;;;;;5032141;28;20452;-78
2023/12/23 11:55:18;;;;;;;1139.83;999.90;;;10.10;99.90;;;;;;5039127;28;20443;-78
2023/12/23 11:57:45;;;;;;;1148.10;999.90;;;10.20;99.90;;;;;;5053802;28;20447;-78
2023/12/23 12:00:15;;;;;;;1170.83;999.90;;;10.30;99.90;;;;;;5054319;28;20451;-77
2023/12/23 12:02:42;;;;;;;1165.80;999.90;;;10.30;99.90;;;;;;5054050;28;20497;-78
2023/12/23 12:05:09;;;;;;;1168.33;999.90;;;10.30;99.90;;;;;;5050967;28;20533;-78
2023/12/23 12:07:36;;;;;;;1172.90;999.90;;;10.30;99.90;;;;;;5027791;28;20513;-78
2023/12/23 12:10:03;;;;;;;1171.77;999.90;;;10.30;99.90;;;;;;5033751;28;20531;-78
2023/12/23 12:12:32;;;;;;;1171.10;999.90;;;10.40;99.90;;;;;;5033417;28;20459;-78
2023/12/23 12:14:59;;;;;;;1174.57;999.90;;;10.40;99.90;;;;;;5050437;28;20490;-78